Cabo San Lucas, BCS, Mexico
Current Conditions -  °F | °C
As of 7:51 PM on Thursday 30 Oct 2014 (Local Time) from MMSD Reporting Station
Clear Clear  
Wind Chill: 79°   Ceiling: Unl
Heat Index: 82°   Visibility: 12mi
Dew Point: 72°   Wind: 17mph
Humidity: 78%   Direction: 330°NNW
Pressure: 29.9"   Gusts: NA
Location:  22.88°N, 109.9°W
Report Text: MMSD 310251Z 33015KT 12SM SKC 26/22 A2990 RMK CI
Loading
Personal Weather Stations






























Interactive Weather Map
Tropical Storm Tracking
New forecast layout! Learn more

10-Day Weather Forecast

Advertisements
Track Severe Weather on mobile